From 09/05/2018 00:00 to 09/21/2018 00:00

Date LAKE ELEVATION [FT] PRECIPITATION INCREMENT [IN] PRECIPITATION TOTAL [IN] AIR TEMPERATURE [F] RELATIVE HUMIDITY [%] RELEASE [CFS]
09/19/2018 14:00 -- -- -- -- -- 55.0
09/19/2018 13:00 115.92 0.00 -- 62.0 -- 55.3
09/19/2018 12:00 115.92 0.00 -- 60.0 -- 56.3
09/19/2018 11:00 115.93 0.00 -- 59.0 -- 57.3
09/19/2018 10:00 115.93 0.00 -- 60.0 -- 58.3
09/19/2018 09:00 115.94 0.00 -- 60.0 -- 59.5
09/19/2018 08:00 115.95 0.00 -- 60.0 -- 60.5
09/19/2018 07:00 115.95 0.00 -- 61.0 -- 61.5
09/19/2018 06:00 115.96 0.00 -- 61.0 -- 63.0
09/19/2018 05:00 115.97 0.00 -- 63.0 -- 64.8
09/19/2018 04:00 115.97 0.00 -- 66.0 -- 66.5
09/19/2018 03:00 115.98 0.00 -- 68.0 -- 67.8
09/19/2018 02:00 115.99 0.00 -- 66.0 -- 68.8
09/19/2018 01:00 115.99 0.00 -- 67.0 -- 70.3
09/19/2018 00:00 116.00 0.00 -- 67.0 -- 72.3
09/18/2018 23:00 116.01 0.00 -- 67.0 -- 73.5
09/18/2018 22:00 116.01 0.00 -- 68.0 -- 75.0
09/18/2018 21:00 116.02 0.00 -- 70.0 -- 76.5
09/18/2018 20:00 116.03 0.00 -- 71.0 -- 78.0
09/18/2018 19:00 116.03 0.00 -- 74.0 -- 79.0
09/18/2018 18:00 116.04 0.01 -- 78.0 -- 80.5
09/18/2018 17:00 116.05 0.00 -- 75.0 -- 82.5
09/18/2018 16:00 116.06 0.00 -- 72.0 -- 84.0
09/18/2018 15:00 116.06 0.00 -- 70.0 -- 85.5
09/18/2018 14:00 116.06 0.00 -- 69.0 -- 86.0
09/18/2018 13:00 116.07 0.07 -- 68.0 -- 86.3
09/18/2018 12:00 116.06 0.69 -- 68.0 -- 71.5
09/18/2018 11:00 116.02 0.34 -- 68.0 -- 31.5
09/18/2018 10:00 115.97 1.16 -- 67.0 -- 17.5
09/18/2018 09:00 115.85 0.53 -- 68.0 -- 7.3
09/18/2018 08:00 115.81 0.40 -- 68.0 -- 3.0
09/18/2018 07:00 115.78 0.30 -- 69.0 -- 1.5
09/18/2018 06:00 115.76 0.13 -- 69.0 -- 1.0
09/18/2018 05:00 115.75 0.06 -- 70.0 -- 1.0
09/18/2018 04:00 115.75 0.03 -- 70.0 -- 0.8
09/18/2018 03:00 115.75 0.01 -- 71.0 -- 0.5
09/18/2018 02:00 115.75 0.00 -- 72.0 -- 0.8
09/18/2018 01:00 115.75 0.00 -- 72.0 -- 0.8
09/18/2018 00:00 115.75 0.00 3.73 72.0 -- 1.0
09/17/2018 23:00 115.75 0.00 -- 71.0 -- 1.0
09/17/2018 22:00 115.75 0.00 -- 71.0 -- 1.0
09/17/2018 21:00 115.75 0.00 -- 72.0 -- 1.0
09/17/2018 20:00 115.75 0.00 -- 74.0 -- 1.0
09/17/2018 19:00 115.75 0.00 -- 75.0 -- 1.0
09/17/2018 18:00 115.76 0.00 -- 79.0 -- 1.0
09/17/2018 17:00 115.76 0.00 -- 80.0 -- 1.0
09/17/2018 16:00 115.76 0.00 -- 81.0 -- 1.0
09/17/2018 15:00 115.76 0.00 -- 81.0 -- 1.0
09/17/2018 14:00 115.77 0.00 -- 81.0 -- 1.0
09/17/2018 13:00 115.76 0.00 -- 79.0 -- 1.0
09/17/2018 12:00 115.77 0.00 -- 76.0 -- 1.0
09/17/2018 11:00 115.76 0.00 -- 73.0 -- 1.0
09/17/2018 10:00 115.76 0.00 -- 68.0 -- 1.0
09/17/2018 09:00 115.76 0.00 -- 66.0 -- 1.0
09/17/2018 08:00 115.76 0.00 -- 65.0 -- 1.0
09/17/2018 07:00 115.76 0.00 -- 63.0 -- 1.0
09/17/2018 06:00 115.76 0.00 -- 62.0 -- 1.0
09/17/2018 05:00 115.76 0.00 -- 62.0 -- 1.0
09/17/2018 04:00 115.76 0.00 -- 62.0 -- 1.0
09/17/2018 03:00 115.76 0.00 -- 62.0 -- 1.0
09/17/2018 02:00 115.76 0.00 -- 63.0 -- 1.0
09/17/2018 01:00 115.76 0.00 -- 64.0 -- 1.0
09/17/2018 00:00 115.76 0.00 0.00 65.0 -- 1.0
09/16/2018 23:00 115.76 0.00 -- 67.0 -- 1.0
09/16/2018 22:00 115.76 0.00 -- 68.0 -- 1.0
09/16/2018 21:00 115.76 0.00 -- 70.0 -- 1.0
09/16/2018 20:00 115.77 0.00 -- 73.0 -- 1.0
09/16/2018 19:00 115.77 0.00 -- 78.0 -- 1.0
09/16/2018 18:00 115.77 0.00 -- 83.0 -- 1.0
09/16/2018 17:00 115.77 0.00 -- 84.0 -- 1.0
09/16/2018 16:00 115.77 0.00 -- 84.0 -- 1.3
09/16/2018 15:00 115.77 0.00 -- 84.0 -- 1.8
09/16/2018 14:00 115.77 0.00 -- 83.0 -- 2.0
09/16/2018 13:00 115.77 0.00 -- 81.0 -- 1.8
09/16/2018 12:00 115.77 0.00 -- 78.0 -- 2.0
09/16/2018 11:00 115.77 0.00 -- 73.0 -- 2.0
09/16/2018 10:00 115.78 0.00 -- 68.0 -- 2.0
09/16/2018 09:00 115.77 0.00 -- 63.0 -- 2.0
09/16/2018 08:00 115.78 0.00 -- 57.0 -- 2.0
09/16/2018 07:00 115.78 0.00 -- 58.0 -- 2.0
09/16/2018 06:00 115.78 0.00 -- 58.0 -- 2.0
09/16/2018 05:00 115.78 0.00 -- 58.0 -- 2.0
09/16/2018 04:00 115.78 0.00 -- 58.0 -- 2.0
09/16/2018 03:00 115.78 0.00 -- 58.0 -- 2.0
09/16/2018 02:00 115.78 0.00 -- 60.0 -- 2.0
09/16/2018 01:00 115.78 0.00 -- 61.0 -- 2.0
09/16/2018 00:00 115.78 0.00 0.00 62.0 -- 2.0
09/15/2018 23:00 115.78 0.00 -- 62.0 -- 2.0
09/15/2018 22:00 115.78 0.00 -- 63.0 -- 2.0
09/15/2018 21:00 115.78 0.00 -- 64.0 -- 2.0
09/15/2018 20:00 115.78 0.00 -- 67.0 -- 2.0
09/15/2018 19:00 115.78 0.00 -- 73.0 -- 2.0
09/15/2018 18:00 115.78 0.00 -- 77.0 -- 2.0
09/15/2018 17:00 115.78 0.00 -- 72.0 -- 2.3
09/15/2018 16:00 115.79 0.00 -- 70.0 -- 2.8
09/15/2018 15:00 115.79 0.00 -- 69.0 -- 3.0
09/15/2018 14:00 115.79 0.00 -- 68.0 -- 2.8
09/15/2018 13:00 115.79 0.00 -- 67.0 -- 2.8
09/15/2018 12:00 115.79 0.00 -- 66.0 -- 2.8
09/15/2018 11:00 115.79 0.00 -- 65.0 -- 3.0
09/15/2018 10:00 115.79 0.00 -- 64.0 -- 2.8
09/15/2018 09:00 115.79 0.01 -- 63.0 -- 3.0
09/15/2018 08:00 115.79 0.00 -- 62.0 -- 3.0
09/15/2018 07:00 115.79 0.00 -- 62.0 -- 3.0
09/15/2018 06:00 115.79 0.00 -- 62.0 -- 3.0
09/15/2018 05:00 115.79 0.00 -- 63.0 -- 3.0
09/15/2018 04:00 115.79 0.00 -- 62.0 -- 3.0
09/15/2018 03:00 115.79 0.00 -- 62.0 -- 3.0
09/15/2018 02:00 115.79 0.00 -- 62.0 -- 3.0
09/15/2018 01:00 115.79 0.00 -- 62.0 -- 3.0
09/15/2018 00:00 115.79 0.00 0.01 63.0 -- 3.0
09/14/2018 23:00 115.79 0.00 -- 63.0 -- 3.0
09/14/2018 22:00 115.79 0.00 -- 63.0 -- 3.0
09/14/2018 21:00 115.79 0.00 -- 63.0 -- 3.0
09/14/2018 20:00 115.79 0.00 -- 67.0 -- 3.0
09/14/2018 19:00 115.79 0.00 -- 73.0 -- 3.0
09/14/2018 18:00 115.79 0.00 -- 75.0 -- 3.0
09/14/2018 17:00 115.79 0.00 -- 73.0 -- 3.0
09/14/2018 16:00 115.79 0.00 -- 74.0 -- 3.0
09/14/2018 15:00 115.80 0.00 -- 74.0 -- 3.3
09/14/2018 14:00 115.80 0.00 -- 74.0 -- 3.5
09/14/2018 13:00 115.80 0.00 -- 71.0 -- 4.0
09/14/2018 12:00 115.80 0.00 -- 67.0 -- 3.8
09/14/2018 11:00 115.80 0.00 -- 65.0 -- 3.5
09/14/2018 10:00 115.80 0.00 -- 63.0 -- 3.8
09/14/2018 09:00 115.80 0.00 -- 61.0 -- 4.0
09/14/2018 08:00 115.80 0.00 -- 60.0 -- 4.0
09/14/2018 07:00 115.80 0.00 -- 58.0 -- 4.0
09/14/2018 06:00 115.81 0.00 -- 59.0 -- 4.0
09/14/2018 05:00 115.81 0.00 -- 60.0 -- 4.0
09/14/2018 04:00 115.80 0.00 -- 60.0 -- 4.0
09/14/2018 03:00 115.80 0.00 -- 62.0 -- 4.0
09/14/2018 02:00 115.80 0.00 -- 61.0 -- 4.0
09/14/2018 01:00 115.80 0.00 -- 61.0 -- 4.0
09/14/2018 00:00 115.80 0.00 0.00 62.0 -- 4.0
09/13/2018 23:00 115.81 0.00 -- 62.0 -- 4.0
09/13/2018 22:00 115.81 0.00 -- 63.0 -- 4.0
09/13/2018 21:00 115.81 0.00 -- 66.0 -- 4.0
09/13/2018 20:00 115.81 0.00 -- 68.0 -- 4.0
09/13/2018 19:00 115.81 0.00 -- 74.0 -- 4.0
09/13/2018 18:00 115.81 0.00 -- 75.0 -- 4.0
09/13/2018 17:00 115.81 0.00 -- 73.0 -- 5.0
09/13/2018 16:00 115.81 0.00 -- 73.0 -- 4.8
09/13/2018 15:00 115.81 0.00 -- 71.0 -- 4.8
09/13/2018 14:00 115.81 0.00 -- 71.0 -- 5.0
09/13/2018 13:00 115.81 0.00 -- 70.0 -- 4.8
09/13/2018 12:00 115.81 0.00 -- 71.0 -- 5.0
09/13/2018 11:00 115.81 0.00 -- 71.0 -- 5.0
09/13/2018 10:00 115.82 0.00 -- 68.0 -- 5.0
09/13/2018 09:00 115.81 0.00 -- 65.0 -- 5.0
09/13/2018 08:00 115.81 0.00 -- 64.0 -- 5.0
09/13/2018 07:00 115.82 0.00 -- 64.0 -- 5.0
09/13/2018 06:00 115.82 0.00 -- 64.0 -- 5.0
09/13/2018 05:00 115.82 0.00 -- 64.0 -- 5.0
09/13/2018 04:00 115.82 0.00 -- 64.0 -- 5.0
09/13/2018 03:00 115.82 0.00 -- 64.0 -- 5.0
09/13/2018 02:00 115.81 0.00 -- 64.0 -- 5.0
09/13/2018 01:00 115.82 0.00 -- 64.0 -- 5.0
09/13/2018 00:00 115.82 0.00 0.00 64.0 -- 5.0
09/12/2018 23:00 115.82 0.00 -- 65.0 -- 5.3
09/12/2018 22:00 115.82 0.00 -- 65.0 -- 5.3
09/12/2018 21:00 115.82 0.00 -- 66.0 -- 5.5
09/12/2018 20:00 115.82 0.00 -- 67.0 -- 5.5
09/12/2018 19:00 115.82 0.00 -- 67.0 -- 5.5
09/12/2018 18:00 115.82 0.00 -- 67.0 -- 5.8
09/12/2018 17:00 115.82 0.00 -- 67.0 -- 5.8
09/12/2018 16:00 115.82 0.00 -- 66.0 -- 6.0
09/12/2018 15:00 115.82 0.00 -- 66.0 -- 5.5
09/12/2018 14:00 115.82 0.00 -- 67.0 -- 5.8
09/12/2018 13:00 115.82 0.00 -- 67.0 -- 6.0
09/12/2018 12:00 115.82 0.00 -- 67.0 -- 6.0
09/12/2018 11:00 115.83 0.00 -- 67.0 -- 6.0
09/12/2018 10:00 115.82 0.02 -- 67.0 -- 6.0
09/12/2018 09:00 115.82 0.00 -- 67.0 -- 6.0
09/12/2018 08:00 115.82 0.00 -- 67.0 -- 6.0
09/12/2018 07:00 115.83 0.00 -- 67.0 -- 6.0
09/12/2018 06:00 115.82 0.00 -- 67.0 -- 6.0
09/12/2018 05:00 115.83 0.01 -- 67.0 -- 6.0
09/12/2018 04:00 115.83 0.02 -- 68.0 -- 6.0
09/12/2018 03:00 115.82 0.04 -- 68.0 -- 6.0
09/12/2018 02:00 115.83 0.00 -- 68.0 -- 6.0
09/12/2018 01:00 115.83 0.00 -- 68.0 -- 6.0
09/12/2018 00:00 115.83 0.00 0.09 68.0 -- 6.0
09/11/2018 23:00 115.83 0.00 -- 68.0 -- 6.0
09/11/2018 22:00 115.83 0.00 -- 69.0 -- 6.0
09/11/2018 21:00 115.83 0.00 -- 70.0 -- 6.0
09/11/2018 20:00 115.83 0.00 -- 70.0 -- 6.0
09/11/2018 19:00 115.83 0.00 -- 73.0 -- 6.0
09/11/2018 18:00 115.83 0.00 -- 76.0 -- 6.0
09/11/2018 17:00 115.82 0.00 -- 75.0 -- 6.0
09/11/2018 16:00 115.82 0.00 -- 72.0 -- 6.0
09/11/2018 15:00 115.82 0.00 -- 70.0 -- 5.3
09/11/2018 14:00 115.82 0.00 -- 68.0 -- 5.3
09/11/2018 13:00 115.81 0.00 -- 66.0 -- 5.0
09/11/2018 12:00 115.81 0.00 -- 64.0 -- 4.3
09/11/2018 11:00 115.81 -- -- 63.0 -- 4.0
09/11/2018 10:00 115.81 -- -- 62.0 -- 3.8
09/11/2018 09:00 115.80 0.00 -- 62.0 -- 3.0
09/11/2018 08:00 115.79 0.02 -- 63.0 -- 3.0
09/11/2018 07:00 115.79 0.04 -- 63.0 -- 2.3
09/11/2018 06:00 115.78 0.16 -- 62.0 -- 2.0
09/11/2018 05:00 115.77 0.17 -- 61.0 -- 1.5
09/11/2018 04:00 115.77 0.12 -- 59.0 -- 1.0
09/11/2018 03:00 115.76 0.13 -- 59.0 -- 1.0
09/11/2018 02:00 115.75 0.13 -- 58.0 -- 1.0
09/11/2018 01:00 115.75 0.03 -- 60.0 -- 0.8
09/11/2018 00:00 115.75 0.09 -- 60.0 -- 0.5
09/10/2018 23:00 115.74 0.10 -- 61.0 -- 0.0
09/10/2018 22:00 115.74 0.05 -- 61.0 -- 0.0
09/10/2018 21:00 115.74 0.05 -- 60.0 -- 0.0
09/10/2018 20:00 115.74 0.03 -- 60.0 -- 0.0
09/10/2018 19:00 115.74 0.01 -- 61.0 -- 0.0
09/10/2018 18:00 115.74 0.00 -- 62.0 -- 0.0
09/10/2018 17:00 115.74 0.00 -- 62.0 -- 0.0
09/10/2018 16:00 115.74 0.00 -- 63.0 -- 0.0
09/10/2018 15:00 115.74 0.00 -- 64.0 -- 0.0
09/10/2018 14:00 115.75 0.00 -- 64.0 -- 0.0
09/10/2018 13:00 115.74 0.00 -- 64.0 -- 0.5
09/10/2018 12:00 115.75 0.00 -- 63.0 -- 1.0
09/10/2018 11:00 115.75 0.00 -- 58.0 -- 1.0
09/10/2018 10:00 115.75 0.00 -- 55.0 -- 1.0
09/10/2018 09:00 115.75 0.00 -- 53.0 -- 1.0
09/10/2018 08:00 115.75 0.00 -- 52.0 -- 1.0
09/10/2018 07:00 115.75 0.00 -- 51.0 -- 1.0
09/10/2018 06:00 115.75 0.00 -- 50.0 -- 1.0
09/10/2018 05:00 115.75 0.00 -- 50.0 -- 1.0
09/10/2018 04:00 115.76 0.00 -- 50.0 -- 1.0
09/10/2018 03:00 115.76 0.00 -- 50.0 -- 1.0
09/10/2018 02:00 115.76 0.00 -- 51.0 -- 1.0
09/10/2018 01:00 115.76 0.00 -- 52.0 -- 1.0
09/10/2018 00:00 115.76 0.00 0.33 52.0 -- 1.0
09/09/2018 23:00 115.76 0.00 -- 51.0 -- 1.0
09/09/2018 22:00 115.76 0.00 -- 52.0 -- 1.0
09/09/2018 21:00 115.76 0.00 -- 53.0 -- 1.0
09/09/2018 20:00 115.76 0.00 -- 55.0 -- 1.0
09/09/2018 19:00 115.76 0.00 -- 57.0 -- 1.0
09/09/2018 18:00 115.77 0.00 -- 58.0 -- 1.5
09/09/2018 17:00 115.77 0.00 -- 60.0 -- 2.0
09/09/2018 16:00 115.77 0.00 -- 61.0 -- 1.5
09/09/2018 15:00 115.77 0.00 -- 60.0 -- 2.0
09/09/2018 14:00 115.77 0.00 -- 60.0 -- 2.0
09/09/2018 13:00 115.78 0.00 -- 59.0 -- 2.0
09/09/2018 12:00 115.77 0.00 -- 57.0 -- 2.0
09/09/2018 11:00 115.78 0.00 -- 56.0 -- 2.0
09/09/2018 10:00 115.78 0.00 -- 54.0 -- 2.0
09/09/2018 09:00 115.78 0.00 -- 51.0 -- 2.0
09/09/2018 08:00 115.78 0.00 -- 50.0 -- 2.0
09/09/2018 07:00 115.78 0.00 -- 50.0 -- 2.0
09/09/2018 06:00 115.78 0.00 -- 51.0 -- 2.0
09/09/2018 05:00 115.78 0.00 -- 52.0 -- 2.0
09/09/2018 04:00 115.78 0.00 -- 52.0 -- 2.5
09/09/2018 03:00 115.79 0.00 -- 53.0 -- 2.8
09/09/2018 02:00 115.79 0.00 -- 54.0 -- 3.0
09/09/2018 01:00 115.79 0.00 -- 55.0 -- 3.0
09/09/2018 00:00 115.79 0.00 0.00 55.2 -- 3.0
09/08/2018 23:00 115.79 0.00 -- 55.4 -- 3.0
09/08/2018 22:00 115.79 0.00 -- 55.5 -- 3.0
09/08/2018 21:00 115.79 0.00 -- 55.7 -- 3.0
09/08/2018 20:00 115.80 0.00 -- 55.9 -- 3.0
09/08/2018 19:00 115.80 0.00 -- 56.0 -- 3.0
09/08/2018 18:00 115.80 0.00 -- 56.2 -- 3.0
09/08/2018 17:00 115.80 0.00 -- 56.4 -- 3.0
09/08/2018 16:00 115.80 0.00 -- 56.6 -- 3.0
09/08/2018 15:00 115.80 0.00 -- 56.8 -- 3.0
09/08/2018 14:00 115.80 0.00 -- 56.9 -- 3.0
09/08/2018 13:00 115.80 0.00 -- 57.1 -- 3.0
09/08/2018 12:00 115.80 0.00 -- 57.3 -- 3.0
09/08/2018 11:00 115.80 0.00 -- 57.5 -- 3.0
09/08/2018 10:00 115.81 0.00 -- 57.6 -- 3.0
09/08/2018 09:00 115.81 0.00 -- 57.8 -- 3.0
09/08/2018 08:00 115.81 0.00 -- 58.0 -- 3.0
09/08/2018 07:00 115.81 0.00 -- 58.1 -- 3.0
09/08/2018 06:00 115.81 0.00 -- 58.3 -- 3.0
09/08/2018 05:00 115.81 0.00 -- 58.5 -- 3.0
09/08/2018 04:00 115.81 0.00 -- 58.7 -- 3.0
09/08/2018 03:00 115.81 0.00 -- 58.9 -- 3.0
09/08/2018 02:00 115.81 0.00 -- 59.0 -- 3.0
09/08/2018 01:00 115.81 0.00 -- 59.2 -- 3.0
09/08/2018 00:00 115.82 0.00 0.00 59.4 -- 3.0
09/07/2018 23:00 115.82 0.00 -- 59.5 -- 3.0
09/07/2018 22:00 115.82 0.00 -- 59.7 -- 3.0
09/07/2018 21:00 115.82 0.00 -- 59.9 -- 3.0
09/07/2018 20:00 115.82 0.00 -- 60.1 -- 3.0
09/07/2018 19:00 115.82 0.00 -- 60.3 -- 3.0
09/07/2018 18:00 115.82 0.00 -- 60.4 -- 3.0
09/07/2018 17:00 115.82 0.00 -- 60.6 -- 3.0
09/07/2018 16:00 115.82 0.00 -- 60.8 -- 3.0
09/07/2018 15:00 115.82 0.00 -- 61.0 -- 3.0
09/07/2018 14:00 115.83 0.00 -- 61.1 -- 3.0
09/07/2018 13:00 115.83 0.00 -- 61.3 -- 3.0
09/07/2018 12:00 115.83 0.00 -- 61.5 -- 3.0
09/07/2018 11:00 115.83 0.00 -- 61.6 -- 3.0
09/07/2018 10:00 115.83 0.00 -- 61.8 -- 3.0
09/07/2018 09:00 115.83 0.00 -- 62.0 -- 6.5
09/07/2018 08:00 115.83 0.00 -- 62.0 -- 6.5
09/07/2018 07:00 115.83 0.00 -- 63.0 -- 7.0
09/07/2018 06:00 115.83 0.00 -- 66.0 -- 6.8
09/07/2018 05:00 115.83 0.00 -- 67.0 -- 7.0
09/07/2018 04:00 115.83 0.00 -- 68.0 -- 7.0
09/07/2018 03:00 115.83 0.00 -- 69.0 -- 7.0
09/07/2018 02:00 115.84 0.00 -- 70.0 -- 7.0
09/07/2018 01:00 115.84 0.00 -- 71.0 -- 7.0
09/07/2018 00:00 115.83 0.00 0.00 71.0 -- 7.0
09/06/2018 23:00 115.84 0.00 -- 72.0 -- 7.0
09/06/2018 22:00 115.84 0.00 -- 72.0 -- 7.0
09/06/2018 21:00 115.84 0.00 -- 73.0 -- 7.5
09/06/2018 20:00 115.84 0.01 -- 73.0 -- 7.5
09/06/2018 19:00 115.84 0.01 -- 75.0 -- 7.5
09/06/2018 18:00 115.84 0.00 -- 76.0 -- 8.0
09/06/2018 17:00 115.85 0.00 -- 76.0 -- 9.0
09/06/2018 16:00 115.86 0.00 -- 80.0 -- 9.0
09/06/2018 15:00 115.85 0.00 -- 91.0 -- 9.0
09/06/2018 14:00 115.85 0.00 -- 90.0 -- 8.8
09/06/2018 13:00 115.85 0.00 -- 87.0 -- 9.0
09/06/2018 12:00 115.85 0.00 -- 85.0 -- 8.3
09/06/2018 11:00 115.85 0.00 -- 83.0 -- 8.0
09/06/2018 10:00 115.84 0.00 -- 80.0 -- 7.8
09/06/2018 09:00 115.85 0.00 -- 76.0 -- 8.0
09/06/2018 08:00 115.85 0.00 -- 74.0 -- 8.0
09/06/2018 07:00 115.85 0.00 -- 73.0 -- 8.0
09/06/2018 06:00 115.85 0.00 -- 74.0 -- 8.0
09/06/2018 05:00 115.84 0.00 -- 74.0 -- 8.0
09/06/2018 04:00 115.84 0.00 -- 75.0 -- 8.0
09/06/2018 03:00 115.85 0.00 -- 75.0 -- 8.0
09/06/2018 02:00 115.85 0.00 -- 75.0 -- 8.3
09/06/2018 01:00 115.85 0.00 -- 76.0 -- 8.3
09/06/2018 00:00 115.85 0.00 0.02 76.0 -- 8.3
09/05/2018 23:00 115.85 0.00 -- 76.0 -- 8.5
09/05/2018 22:00 115.85 0.00 -- 76.0 -- 8.5
09/05/2018 21:00 115.85 0.00 -- 78.0 -- 9.0
09/05/2018 20:00 115.85 0.00 -- 81.0 -- 9.0
09/05/2018 19:00 115.85 0.00 -- 89.0 -- 8.5
09/05/2018 18:00 115.85 0.00 -- 90.0 -- 8.8
09/05/2018 17:00 115.85 0.00 -- 89.0 -- 9.0
09/05/2018 16:00 115.85 0.00 -- 88.0 -- 9.0
09/05/2018 15:00 115.86 0.00 -- 86.0 -- 9.5
09/05/2018 14:00 115.86 0.00 -- 85.0 -- 9.0
09/05/2018 13:00 -- -- -- 82.8 -- 9.0
09/05/2018 12:00 -- -- -- 80.6 -- 9.0
09/05/2018 11:00 -- -- -- 78.3 -- 9.0
09/05/2018 10:00 -- -- -- 76.1 -- 9.0
09/05/2018 09:00 -- -- -- 73.9 -- 9.0
09/05/2018 08:00 -- -- -- 71.7 -- 9.0
09/05/2018 07:00 -- -- -- 69.4 -- 9.0
09/05/2018 06:00 -- -- -- 67.2 -- 9.0
09/05/2018 05:00 -- -- -- 65.0 -- 10.0
09/05/2018 04:00 -- -- -- 65.0 -- 10.0
09/05/2018 03:00 -- -- -- 66.0 -- 10.0
09/05/2018 02:00 -- -- -- 67.0 -- 10.0
09/05/2018 01:00 -- -- -- 68.0 -- 10.3
09/05/2018 00:00 -- -- 0.00 69.0 -- 10.0